Time;durP1;ratioP1;P1;durP2;ratioP2;P2;SDS_P1;SDS_P2;PMS_P1;PMS_P2;Temp;Humidity;BMP_temperature;BMP_pressure;BME280_temperature;BME280_humidity;BME280_pressure;Samples;Min_cycle;Max_cycle;Signal;HPM_P1;HPM_P2
2021/06/05 00:00:27;;;;;;;31.00;22.00;;;16.80;99.90;;;;;;4917059;29;20472;-74
2021/06/05 00:02:53;;;;;;;25.77;19.13;;;16.80;99.90;;;;;;4916911;29;20170;-76
2021/06/05 00:05:20;;;;;;;27.17;18.10;;;16.80;99.90;;;;;;4917191;29;20465;-75
2021/06/05 00:07:47;;;;;;;27.83;18.50;;;16.80;99.90;;;;;;4917211;29;20446;-77
2021/06/05 00:10:20;;;;;;;28.67;19.30;;;16.70;99.90;;;;;;4916061;29;20909;-75
2021/06/05 00:12:45;;;;;;;32.70;19.33;;;16.70;99.90;;;;;;4916824;29;20418;-76
2021/06/05 00:15:18;;;;;;;32.00;18.57;;;16.70;99.90;;;;;;4931681;29;20431;-76
2021/06/05 00:17:43;;;;;;;61.30;22.30;;;16.60;99.90;;;;;;4917016;29;20229;-76
2021/06/05 00:20:11;;;;;;;36.03;20.70;;;16.50;99.90;;;;;;4916708;29;20785;-76
2021/06/05 00:22:36;;;;;;;35.33;20.77;;;16.50;99.90;;;;;;4916587;29;20549;-75
2021/06/05 00:25:06;;;;;;;52.13;21.97;;;16.50;99.90;;;;;;4916528;29;20438;-74
2021/06/05 00:27:32;;;;;;;33.60;21.10;;;16.50;99.90;;;;;;4917031;29;20189;-76
2021/06/05 00:29:57;;;;;;;29.50;18.80;;;16.50;99.90;;;;;;4916940;29;20676;-76
2021/06/05 00:32:23;;;;;;;34.87;20.70;;;16.60;99.90;;;;;;4916858;29;20192;-76
2021/06/05 00:34:48;;;;;;;34.00;19.47;;;16.60;99.90;;;;;;4916444;29;20202;-76
2021/06/05 00:37:14;;;;;;;38.33;22.70;;;16.50;99.90;;;;;;4916881;29;20201;-76
2021/06/05 00:39:39;;;;;;;52.37;23.30;;;16.50;99.90;;;;;;4916816;29;20196;-76
2021/06/05 00:42:05;;;;;;;40.17;21.97;;;16.50;99.90;;;;;;4931324;29;20253;-76
2021/06/05 00:44:31;;;;;;;43.70;25.10;;;16.50;99.90;;;;;;4916216;29;20576;-76
2021/06/05 00:46:59;;;;;;;40.07;23.03;;;16.40;99.90;;;;;;4931494;29;20186;-76
2021/06/05 00:49:25;;;;;;;45.40;20.70;;;16.40;99.90;;;;;;4915505;29;20194;-76
2021/06/05 00:51:53;;;;;;;40.63;22.67;;;16.50;99.90;;;;;;4931188;29;20413;-75
2021/06/05 00:54:21;;;;;;;47.53;23.10;;;16.50;99.90;;;;;;4916125;29;20206;-76
2021/06/05 00:56:50;;;;;;;36.93;23.47;;;16.50;99.90;;;;;;4916883;29;20433;-75
2021/06/05 00:59:16;;;;;;;39.60;22.80;;;16.40;99.90;;;;;;4916717;29;20414;-76
2021/06/05 01:01:42;;;;;;;41.30;19.97;;;16.40;99.90;;;;;;4916779;29;20397;-76
2021/06/05 01:04:08;;;;;;;36.47;21.67;;;16.40;99.90;;;;;;4916066;29;20700;-75
2021/06/05 01:06:36;;;;;;;45.60;24.90;;;16.40;99.90;;;;;;4916464;29;20654;-76
2021/06/05 01:09:21;;;;;;;58.57;25.30;;;16.40;99.90;;;;;;4916519;29;20221;-75
2021/06/05 01:12:07;;;;;;;44.40;25.30;;;16.40;99.90;;;;;;4916586;29;20393;-75
2021/06/05 01:14:40;;;;;;;55.73;23.40;;;16.30;99.90;;;;;;4916104;29;20446;-75
2021/06/05 01:17:11;;;;;;;43.03;22.23;;;16.20;99.90;;;;;;4916600;29;20404;-76
2021/06/05 01:20:02;;;;;;;49.80;22.60;;;16.20;99.90;;;;;;4917016;29;20414;-76
2021/06/05 01:23:10;;;;;;;44.43;19.90;;;16.20;99.90;;;;;;4919944;29;20444;-77
2021/06/05 01:26:07;;;;;;;32.30;18.93;;;16.20;99.90;;;;;;4919954;29;20784;-76
2021/06/05 01:29:16;;;;;;;30.33;19.83;;;16.10;99.90;;;;;;4919679;29;20388;-76
2021/06/05 01:31:48;;;;;;;34.00;20.70;;;16.10;99.90;;;;;;4919838;29;20407;-75
2021/06/05 01:34:14;;;;;;;49.30;25.10;;;16.00;99.90;;;;;;4919256;29;20961;-76
2021/06/05 01:36:49;;;;;;;48.67;24.60;;;16.10;99.90;;;;;;4918312;29;20409;-75
2021/06/05 01:39:20;;;;;;;45.67;24.90;;;16.10;99.90;;;;;;4919544;29;20392;-75
2021/06/05 01:41:47;;;;;;;62.67;28.77;;;16.10;99.90;;;;;;4919644;29;20414;-74
2021/06/05 01:44:15;;;;;;;53.30;29.17;;;16.10;99.90;;;;;;4919031;29;20478;-75
2021/06/05 01:46:44;;;;;;;53.33;26.00;;;16.00;99.90;;;;;;4919312;29;20401;-75
2021/06/05 01:49:11;;;;;;;64.03;28.90;;;16.10;99.90;;;;;;4919457;29;20418;-75
2021/06/05 01:51:41;;;;;;;58.17;27.90;;;16.10;99.90;;;;;;4918138;29;20504;-74
2021/06/05 01:54:12;;;;;;;72.60;30.13;;;16.10;99.90;;;;;;4918923;29;20445;-75
2021/06/05 01:56:44;;;;;;;60.80;27.67;;;16.10;99.90;;;;;;4919375;29;20753;-75
2021/06/05 01:59:17;;;;;;;158.10;30.40;;;16.10;99.90;;;;;;4919193;29;20918;-75
2021/06/05 02:01:44;;;;;;;63.47;24.83;;;16.10;99.90;;;;;;4919309;29;20456;-75
2021/06/05 02:04:10;;;;;;;43.53;24.47;;;16.20;99.90;;;;;;4918605;29;20476;-75
2021/06/05 02:06:38;;;;;;;44.63;23.27;;;16.20;99.90;;;;;;4934037;29;20422;-75
2021/06/05 02:09:07;;;;;;;48.73;23.10;;;16.10;99.90;;;;;;4919208;29;20414;-75
2021/06/05 02:11:39;;;;;;;41.93;22.73;;;16.10;99.90;;;;;;4919141;29;20489;-75
2021/06/05 02:14:11;;;;;;;51.20;24.80;;;16.20;99.90;;;;;;4918770;29;20766;-74
2021/06/05 02:16:44;;;;;;;55.63;26.83;;;16.20;99.90;;;;;;4919203;29;20418;-75
2021/06/05 02:19:17;;;;;;;44.67;24.97;;;16.20;99.90;;;;;;4918929;29;20419;-75
2021/06/05 02:21:46;;;;;;;41.13;24.90;;;16.20;99.90;;;;;;4918972;29;20403;-75
2021/06/05 02:24:21;;;;;;;44.97;24.93;;;16.30;99.90;;;;;;4918516;29;20448;-75
2021/06/05 02:26:49;;;;;;;54.90;28.87;;;16.30;99.90;;;;;;4919229;29;20418;-74
2021/06/05 02:29:19;;;;;;;74.37;35.67;;;16.40;99.90;;;;;;4918834;29;20396;-74
2021/06/05 02:31:44;;;;;;;50.03;30.50;;;16.40;99.90;;;;;;4918003;29;20389;-75
2021/06/05 02:34:15;;;;;;;75.57;37.93;;;16.40;99.90;;;;;;4918141;29;20513;-76
2021/06/05 02:36:44;;;;;;;75.10;39.67;;;16.50;99.90;;;;;;4918553;29;20193;-75
2021/06/05 02:39:12;;;;;;;61.73;33.70;;;16.50;99.90;;;;;;4918566;29;20407;-75
2021/06/05 02:41:44;;;;;;;66.53;34.57;;;16.50;99.90;;;;;;4918462;29;20401;-76
2021/06/05 02:44:12;;;;;;;67.30;36.73;;;16.30;99.90;;;;;;4918151;29;20469;-75
2021/06/05 02:46:39;;;;;;;69.53;36.10;;;16.40;99.90;;;;;;4918330;29;20414;-75
2021/06/05 02:49:20;;;;;;;70.23;34.90;;;16.40;99.90;;;;;;4918158;29;20901;-76
2021/06/05 02:51:50;;;;;;;75.67;38.40;;;16.40;99.90;;;;;;4918444;29;20385;-75
2021/06/05 02:54:17;;;;;;;62.70;34.90;;;16.40;99.90;;;;;;4917945;29;20485;-75
2021/06/05 02:56:43;;;;;;;78.10;34.57;;;16.40;99.90;;;;;;4918279;29;20396;-75
2021/06/05 02:59:09;;;;;;;73.90;34.90;;;16.50;99.90;;;;;;4917177;29;20446;-76
2021/06/05 03:01:35;;;;;;;65.23;35.67;;;16.50;99.90;;;;;;4918185;29;20265;-73
2021/06/05 03:04:01;;;;;;;61.47;33.70;;;16.60;99.90;;;;;;4917486;29;20222;-76
2021/06/05 03:06:31;;;;;;;81.70;38.20;;;16.60;99.90;;;;;;4918065;29;20393;-75
2021/06/05 03:08:57;;;;;;;69.97;39.50;;;16.60;99.90;;;;;;4918296;29;20422;-75
2021/06/05 03:11:24;;;;;;;66.93;37.27;;;16.60;99.90;;;;;;4917733;29;20779;-75
2021/06/05 03:13:50;;;;;;;77.40;37.40;;;16.60;99.90;;;;;;4917661;29;20421;-75
2021/06/05 03:16:18;;;;;;;74.30;38.47;;;16.60;99.90;;;;;;4917838;29;20392;-76
2021/06/05 03:18:45;;;;;;;64.40;35.50;;;16.70;99.90;;;;;;4917826;29;20410;-74
2021/06/05 03:21:15;;;;;;;62.13;35.80;;;16.60;99.90;;;;;;4917746;29;20878;-74
2021/06/05 03:23:41;;;;;;;62.90;36.60;;;16.60;99.90;;;;;;4917230;29;20444;-76
2021/06/05 03:26:07;;;;;;;65.67;34.60;;;16.60;99.90;;;;;;4917813;29;20396;-75
2021/06/05 03:28:34;;;;;;;74.63;36.27;;;16.60;99.90;;;;;;4917609;29;20411;-75
2021/06/05 03:31:00;;;;;;;74.07;34.17;;;16.60;99.90;;;;;;4917556;29;20389;-74
2021/06/05 03:33:26;;;;;;;55.47;31.87;;;16.60;99.90;;;;;;4917166;29;20442;-75
2021/06/05 03:35:53;;;;;;;51.70;33.30;;;16.50;99.90;;;;;;4917473;29;20429;-75
2021/06/05 03:38:20;;;;;;;56.27;34.00;;;16.50;99.90;;;;;;4917510;29;20753;-75
2021/06/05 03:40:46;;;;;;;55.77;32.57;;;16.60;99.90;;;;;;4917465;29;20404;-75
2021/06/05 03:43:12;;;;;;;64.27;31.97;;;16.60;99.90;;;;;;4916695;29;20548;-75
2021/06/05 03:45:38;;;;;;;70.50;34.70;;;16.70;99.90;;;;;;4917142;29;20498;-75
2021/06/05 03:48:05;;;;;;;68.93;35.10;;;16.80;99.90;;;;;;4917276;29;20183;-76
2021/06/05 03:50:34;;;;;;;66.93;36.10;;;16.80;99.90;;;;;;4917247;29;20388;-74
2021/06/05 03:53:00;;;;;;;74.77;35.20;;;16.90;99.90;;;;;;4916902;29;20437;-75
2021/06/05 03:55:26;;;;;;;59.63;34.60;;;16.90;99.90;;;;;;4917215;29;20501;-76
2021/06/05 03:57:52;;;;;;;74.83;36.83;;;16.90;99.90;;;;;;4917191;29;20827;-75
2021/06/05 04:00:31;;;;;;;86.30;34.00;;;16.90;99.90;;;;;;4917261;29;20450;-75
2021/06/05 04:02:57;;;;;;;69.30;35.23;;;17.00;99.90;;;;;;4916966;29;20391;-74
2021/06/05 04:05:23;;;;;;;71.67;33.63;;;17.10;99.90;;;;;;4916982;29;20442;-75
2021/06/05 04:07:49;;;;;;;73.60;35.70;;;17.00;99.90;;;;;;4916908;29;20419;-75
2021/06/05 04:10:16;;;;;;;73.83;36.13;;;17.10;99.90;;;;;;4916998;29;20411;-74
2021/06/05 04:12:42;;;;;;;73.67;32.70;;;17.20;99.90;;;;;;4916897;29;20538;-75
2021/06/05 04:15:12;;;;;;;88.00;33.30;;;17.10;99.90;;;;;;4916665;29;20507;-75
2021/06/05 04:17:37;;;;;;;79.97;35.90;;;17.10;99.90;;;;;;4916953;29;20667;-76
2021/06/05 04:20:06;;;;;;;60.83;31.53;;;17.10;99.90;;;;;;4931637;29;20405;-74
2021/06/05 04:22:31;;;;;;;57.90;31.17;;;17.10;99.90;;;;;;4917057;29;20205;-74
2021/06/05 04:24:58;;;;;;;56.27;29.10;;;17.10;99.90;;;;;;4916550;29;20971;-75
2021/06/05 04:27:24;;;;;;;51.17;28.10;;;17.20;99.90;;;;;;4916998;29;20181;-73
2021/06/05 04:29:50;;;;;;;51.77;28.77;;;17.20;99.90;;;;;;4916701;29;20407;-76
2021/06/05 04:32:15;;;;;;;52.13;27.83;;;17.20;99.90;;;;;;4916710;29;20256;-75
2021/06/05 04:34:41;;;;;;;54.00;28.70;;;17.20;99.90;;;;;;4916478;29;20281;-75
2021/06/05 04:37:06;;;;;;;45.17;28.30;;;17.20;99.90;;;;;;4931490;29;20190;-75
2021/06/05 04:39:32;;;;;;;51.70;27.60;;;17.10;99.90;;;;;;4916726;29;20182;-75
2021/06/05 04:41:58;;;;;;;49.30;28.63;;;17.20;99.90;;;;;;4916689;29;20182;-76
2021/06/05 04:44:25;;;;;;;50.50;27.50;;;17.20;99.90;;;;;;4916269;29;20234;-75
2021/06/05 04:46:50;;;;;;;46.53;27.63;;;17.20;99.90;;;;;;4916652;29;20397;-75
2021/06/05 04:49:16;;;;;;;46.73;26.00;;;17.20;99.90;;;;;;4916567;29;20913;-76
2021/06/05 04:51:41;;;;;;;42.30;25.30;;;17.30;99.90;;;;;;4916674;29;20287;-75
2021/06/05 04:54:08;;;;;;;46.50;27.50;;;17.40;99.90;;;;;;4916069;29;20688;-74
2021/06/05 04:56:40;;;;;;;36.40;25.53;;;17.40;99.90;;;;;;4920008;29;20190;-75
2021/06/05 04:59:07;;;;;;;39.47;25.47;;;17.40;99.90;;;;;;4920321;29;20421;-75
2021/06/05 05:01:33;;;;;;;38.43;26.80;;;17.40;99.90;;;;;;4920564;29;20777;-76
2021/06/05 05:04:00;;;;;;;45.10;28.00;;;17.50;99.90;;;;;;4919748;29;20444;-76
2021/06/05 05:06:26;;;;;;;38.10;25.17;;;17.60;99.90;;;;;;4920091;29;20908;-75
2021/06/05 05:08:51;;;;;;;35.03;25.60;;;17.50;99.90;;;;;;4919157;29;20445;-75
2021/06/05 05:11:17;;;;;;;35.60;25.60;;;17.40;99.90;;;;;;4920261;29;20186;-76
2021/06/05 05:13:43;;;;;;;40.33;24.77;;;17.40;99.90;;;;;;4919730;29;20206;-75
2021/06/05 05:16:09;;;;;;;40.23;27.37;;;17.60;99.90;;;;;;4920044;29;20257;-75
2021/06/05 05:18:36;;;;;;;39.53;26.93;;;17.60;99.90;;;;;;4920102;29;20259;-76
2021/06/05 05:21:03;;;;;;;42.37;27.20;;;17.70;99.90;;;;;;4934508;29;20481;-76
2021/06/05 05:23:30;;;;;;;39.57;24.90;;;17.70;99.90;;;;;;4919469;29;20462;-75
2021/06/05 05:25:59;;;;;;;41.10;26.23;;;17.60;99.90;;;;;;4920250;29;20859;-76
2021/06/05 05:28:26;;;;;;;34.80;24.40;;;17.60;99.90;;;;;;4919908;29;20762;-74
2021/06/05 05:30:54;;;;;;;36.10;24.80;;;17.70;99.90;;;;;;4920051;29;20961;-75
2021/06/05 05:33:22;;;;;;;32.10;24.73;;;17.70;99.90;;;;;;4919501;29;20408;-76
2021/06/05 05:35:48;;;;;;;32.97;22.73;;;17.70;99.90;;;;;;4919741;29;20400;-74
2021/06/05 05:38:15;;;;;;;32.70;25.60;;;17.70;99.90;;;;;;4918369;29;20426;-77
2021/06/05 05:40:43;;;;;;;33.47;24.60;;;17.70;99.90;;;;;;4919641;29;20819;-75
2021/06/05 05:43:09;;;;;;;33.03;23.40;;;17.70;99.90;;;;;;4919098;29;20465;-75
2021/06/05 05:45:35;;;;;;;32.47;21.50;;;17.70;99.90;;;;;;4919547;29;20414;-75
2021/06/05 05:48:04;;;;;;;29.10;22.57;;;17.80;99.90;;;;;;4920129;29;20749;-75
2021/06/05 05:50:31;;;;;;;36.30;25.87;;;17.80;99.90;;;;;;4919283;29;20412;-76
2021/06/05 05:52:57;;;;;;;33.30;23.10;;;17.70;99.90;;;;;;4917793;29;20433;-75
2021/06/05 05:55:23;;;;;;;29.23;23.30;;;17.80;99.90;;;;;;4919251;29;20557;-75
2021/06/05 05:57:49;;;;;;;34.90;24.07;;;17.90;99.90;;;;;;4934024;29;20471;-75
2021/06/05 06:00:26;;;;;;;37.77;25.77;;;17.90;99.90;;;;;;4917998;29;20184;-75
2021/06/05 06:02:51;;;;;;;37.77;24.03;;;18.00;99.90;;;;;;4918957;29;20437;-77
2021/06/05 06:05:17;;;;;;;37.40;24.60;;;18.00;99.90;;;;;;4918978;29;20981;-76
2021/06/05 06:07:43;;;;;;;36.10;23.83;;;18.10;99.90;;;;;;4919036;29;20170;-76
2021/06/05 06:10:11;;;;;;;34.60;24.23;;;18.00;99.90;;;;;;4933781;29;20397;-75
2021/06/05 06:12:37;;;;;;;34.40;23.37;;;18.00;99.90;;;;;;4918864;29;20193;-76
2021/06/05 06:15:13;;;;;;;35.07;22.23;;;18.10;99.90;;;;;;4918749;29;20445;-76
2021/06/05 06:17:40;;;;;;;30.73;23.43;;;18.00;99.90;;;;;;4919410;29;20460;-75
2021/06/05 06:20:07;;;;;;;26.77;22.27;;;18.10;99.90;;;;;;4919106;29;20401;-75
2021/06/05 06:22:33;;;;;;;28.17;22.27;;;18.10;99.90;;;;;;4918940;29;20457;-75
2021/06/05 06:24:59;;;;;;;26.90;22.40;;;18.10;99.90;;;;;;4933118;29;20448;-77
2021/06/05 06:27:25;;;;;;;27.67;20.97;;;18.20;99.90;;;;;;4918717;29;20190;-75
2021/06/05 06:29:50;;;;;;;27.77;20.70;;;18.20;99.90;;;;;;4917791;29;20816;-75
2021/06/05 06:32:16;;;;;;;24.23;20.07;;;18.30;99.90;;;;;;4918783;29;20178;-75
2021/06/05 06:34:41;;;;;;;27.20;20.30;;;18.20;99.90;;;;;;4918110;29;20210;-75
2021/06/05 06:37:07;;;;;;;25.87;20.80;;;18.30;99.90;;;;;;4933189;29;20214;-75
2021/06/05 06:39:33;;;;;;;24.63;19.73;;;18.30;99.90;;;;;;4917308;29;20190;-75
2021/06/05 06:41:59;;;;;;;24.03;19.40;;;18.40;99.90;;;;;;4918609;29;20186;-75
2021/06/05 06:44:26;;;;;;;20.87;18.63;;;18.50;99.90;;;;;;4918104;29;20814;-76
2021/06/05 06:46:51;;;;;;;21.13;18.73;;;18.60;99.90;;;;;;4918333;29;20408;-76
2021/06/05 06:49:19;;;;;;;27.70;20.40;;;18.50;99.90;;;;;;4918277;29;20393;-75
2021/06/05 06:51:45;;;;;;;24.70;19.10;;;18.80;99.90;;;;;;4918385;29;20527;-75
2021/06/05 06:54:13;;;;;;;27.13;19.77;;;18.80;99.90;;;;;;4917906;29;20428;-74
2021/06/05 06:56:39;;;;;;;28.60;20.30;;;18.80;99.90;;;;;;4932772;29;20934;-75
2021/06/05 06:59:06;;;;;;;26.13;19.73;;;18.90;99.90;;;;;;4917938;29;20411;-76
2021/06/05 07:01:32;;;;;;;24.90;20.53;;;19.00;99.90;;;;;;4918137;29;20472;-76
2021/06/05 07:03:58;;;;;;;27.90;19.90;;;19.00;99.90;;;;;;4917617;29;20488;-75
2021/06/05 07:06:25;;;;;;;35.97;25.87;;;19.10;99.90;;;;;;4918308;29;20426;-75
2021/06/05 07:08:53;;;;;;;32.13;23.37;;;19.00;99.90;;;;;;4932707;29;20262;-76
2021/06/05 07:11:22;;;;;;;32.33;25.13;;;19.20;99.90;;;;;;4918068;29;20490;-75
2021/06/05 07:13:48;;;;;;;37.27;25.33;;;19.30;99.90;;;;;;4917542;29;20424;-76
2021/06/05 07:16:14;;;;;;;35.57;25.40;;;19.30;99.90;;;;;;4917833;29;20418;-75
2021/06/05 07:18:40;;;;;;;35.97;24.73;;;19.50;99.90;;;;;;4917287;29;20186;-75
2021/06/05 07:21:09;;;;;;;35.83;26.50;;;19.60;99.90;;;;;;4917771;29;20426;-76
2021/06/05 07:23:36;;;;;;;38.23;28.70;;;19.50;99.90;;;;;;4917160;29;20220;-76
2021/06/05 07:26:05;;;;;;;37.93;26.93;;;19.50;99.90;;;;;;4917771;29;20397;-75
2021/06/05 07:28:37;;;;;;;42.83;30.67;;;19.60;99.90;;;;;;4917680;29;20466;-75
2021/06/05 07:31:05;;;;;;;42.47;27.40;;;19.80;99.90;;;;;;4917905;29;20382;-76
2021/06/05 07:33:31;;;;;;;41.17;30.07;;;20.00;99.90;;;;;;4917207;29;20451;-76
2021/06/05 07:35:58;;;;;;;40.80;29.30;;;20.10;99.90;;;;;;4932190;29;20531;-75
2021/06/05 07:38:25;;;;;;;40.33;27.40;;;19.90;99.90;;;;;;4917581;29;20418;-76
2021/06/05 07:40:52;;;;;;;37.20;28.83;;;19.70;99.90;;;;;;4917864;29;20869;-76
2021/06/05 07:43:20;;;;;;;34.83;25.47;;;19.80;99.90;;;;;;4916947;29;20820;-75
2021/06/05 07:45:46;;;;;;;40.73;29.00;;;20.00;99.90;;;;;;4917453;29;20837;-75
2021/06/05 07:48:12;;;;;;;37.57;26.80;;;19.80;99.90;;;;;;4917314;29;20493;-76
2021/06/05 07:50:38;;;;;;;39.03;26.90;;;19.80;99.90;;;;;;4917570;29;20774;-75
2021/06/05 07:53:04;;;;;;;36.47;26.30;;;19.90;99.90;;;;;;4917212;29;20762;-76
2021/06/05 07:55:30;;;;;;;35.27;24.53;;;20.10;99.90;;;;;;4917168;29;20410;-77
2021/06/05 07:57:55;;;;;;;33.47;26.97;;;20.30;99.90;;;;;;4917215;29;20175;-76
2021/06/05 08:00:25;;;;;;;35.37;25.30;;;20.40;99.90;;;;;;4917142;29;20238;-76
2021/06/05 08:02:51;;;;;;;36.63;27.33;;;20.40;99.90;;;;;;4916515;29;20179;-75
2021/06/05 08:05:18;;;;;;;33.67;24.77;;;20.40;99.90;;;;;;4917216;29;20967;-75
2021/06/05 08:07:44;;;;;;;36.47;25.40;;;20.10;99.90;;;;;;4917138;29;20496;-75
2021/06/05 08:10:11;;;;;;;35.10;27.30;;;20.00;99.90;;;;;;4917180;29;20418;-75
2021/06/05 08:12:38;;;;;;;35.83;26.13;;;19.90;99.90;;;;;;4917086;29;20875;-75
2021/06/05 08:15:07;;;;;;;39.03;26.87;;;19.90;99.90;;;;;;4916821;29;20514;-75
2021/06/05 08:17:33;;;;;;;35.10;26.50;;;19.80;99.90;;;;;;4916814;29;20446;-75
2021/06/05 08:19:58;;;;;;;37.70;26.57;;;19.80;99.90;;;;;;4916929;29;20794;-76
2021/06/05 08:22:26;;;;;;;35.00;27.20;;;19.70;99.90;;;;;;4931778;29;20488;-75
2021/06/05 08:24:52;;;;;;;34.73;25.40;;;19.50;99.90;;;;;;4915472;29;20205;-76
2021/06/05 08:27:18;;;;;;;42.50;29.07;;;19.50;99.90;;;;;;4917200;29;20400;-76
2021/06/05 08:29:44;;;;;;;38.97;29.10;;;19.60;99.90;;;;;;4917582;29;20426;-77
2021/06/05 08:32:10;;;;;;;39.47;27.40;;;19.60;99.90;;;;;;4921053;29;20422;-76
2021/06/05 08:34:36;;;;;;;39.17;28.00;;;19.60;99.90;;;;;;4920435;29;20671;-76
2021/06/05 08:37:01;;;;;;;42.17;30.00;;;19.70;99.90;;;;;;4920893;29;20400;-77
2021/06/05 08:39:27;;;;;;;41.60;28.90;;;19.60;99.90;;;;;;4888750;29;20186;-76
2021/06/05 08:41:58;;;;;;;36.83;27.20;;;19.60;99.90;;;;;;4920628;29;20969;-77
2021/06/05 08:44:36;;;;;;;41.87;29.30;;;19.60;99.90;;;;;;4920410;29;20579;-77
2021/06/05 08:47:17;;;;;;;38.20;27.43;;;19.80;99.90;;;;;;4920960;29;20772;-77
2021/06/05 08:49:45;;;;;;;36.93;28.67;;;19.80;99.90;;;;;;4920881;29;20377;-77
2021/06/05 08:52:26;;;;;;;35.83;27.20;;;19.70;99.90;;;;;;4920906;29;20819;-77
2021/06/05 08:55:09;;;;;;;38.40;27.73;;;19.80;99.90;;;;;;4920496;29;20472;-76
2021/06/05 08:57:50;;;;;;;34.90;27.10;;;19.90;99.90;;;;;;4921925;29;20773;-77
2021/06/05 09:00:27;;;;;;;39.80;27.67;;;19.90;99.90;;;;;;4920320;29;20429;-76
2021/06/05 09:02:57;;;;;;;42.07;27.00;;;20.00;99.90;;;;;;4920194;29;20425;-77
2021/06/05 09:05:29;;;;;;;36.80;27.07;;;20.00;99.90;;;;;;4920196;29;20862;-76
2021/06/05 09:07:54;;;;;;;39.80;28.23;;;20.10;99.90;;;;;;4920199;29;20414;-76
2021/06/05 09:10:22;;;;;;;39.70;27.77;;;20.10;99.90;;;;;;4920154;29;20439;-77
2021/06/05 09:12:47;;;;;;;40.47;29.67;;;20.20;99.90;;;;;;4919899;29;20226;-77
2021/06/05 09:15:28;;;;;;;38.20;29.20;;;20.10;99.90;;;;;;4920070;29;20438;-76
2021/06/05 09:17:59;;;;;;;34.17;27.50;;;20.00;99.90;;;;;;4920286;29;20188;-77
2021/06/05 09:20:27;;;;;;;37.73;27.37;;;19.80;99.90;;;;;;4919201;29;20943;-76
2021/06/05 09:22:53;;;;;;;35.77;26.93;;;19.90;99.90;;;;;;4919745;29;20760;-76
2021/06/05 09:25:37;;;;;;;37.23;26.57;;;19.90;99.90;;;;;;4920025;29;20837;-76
2021/06/05 09:28:23;;;;;;;32.40;26.70;;;20.10;99.90;;;;;;4919984;29;20407;-77
2021/06/05 09:30:52;;;;;;;40.53;29.87;;;20.00;99.90;;;;;;4920053;29;20853;-76
2021/06/05 09:33:34;;;;;;;35.77;26.13;;;20.10;99.90;;;;;;4919669;29;20429;-77
2021/06/05 09:36:20;;;;;;;38.13;26.90;;;20.00;99.90;;;;;;4919744;29;20507;-77
2021/06/05 09:38:56;;;;;;;39.13;27.17;;;20.00;99.90;;;;;;4919574;29;20403;-76
2021/06/05 09:41:37;;;;;;;45.13;29.43;;;19.70;99.90;;;;;;4919164;29;20497;-76
2021/06/05 09:44:20;;;;;;;51.53;32.90;;;19.60;99.90;;;;;;4919236;29;20466;-76
2021/06/05 09:47:05;;;;;;;55.50;33.93;;;19.50;99.90;;;;;;4918482;29;20397;-76
2021/06/05 09:49:35;;;;;;;57.20;31.30;;;19.40;99.90;;;;;;4919082;29;20588;-76
2021/06/05 09:52:12;;;;;;;61.93;35.07;;;19.30;99.90;;;;;;4914557;29;20774;-76
2021/06/05 09:54:41;;;;;;;55.00;31.93;;;19.10;99.90;;;;;;4918510;29;20982;-77
2021/06/05 09:57:38;;;;;;;61.27;35.87;;;19.10;99.90;;;;;;4919001;29;20459;-76
2021/06/05 10:00:23;;;;;;;52.70;33.27;;;19.20;99.90;;;;;;4917901;29;20434;-77
2021/06/05 10:02:51;;;;;;;55.90;31.07;;;19.20;99.90;;;;;;4918909;29;20744;-76
2021/06/05 10:05:28;;;;;;;55.93;34.37;;;19.30;99.90;;;;;;4919025;29;20445;-76
2021/06/05 10:07:55;;;;;;;49.90;31.53;;;19.30;99.90;;;;;;4919644;29;20436;-78
2021/06/05 10:10:40;;;;;;;52.23;30.90;;;19.40;99.90;;;;;;4918970;29;20460;-78
2021/06/05 10:13:11;;;;;;;54.57;35.10;;;19.50;99.90;;;;;;4918832;29;20481;-77
2021/06/05 10:15:46;;;;;;;49.50;30.67;;;19.70;99.90;;;;;;4919355;29;20450;-78
2021/06/05 10:18:17;;;;;;;42.57;31.50;;;19.90;99.90;;;;;;4919297;29;20755;-77
2021/06/05 10:21:01;;;;;;;47.00;31.17;;;20.00;99.90;;;;;;4919065;29;20730;-78
2021/06/05 10:23:39;;;;;;;44.70;30.83;;;20.40;99.90;;;;;;4919363;29;20470;-77
2021/06/05 10:26:14;;;;;;;42.23;31.90;;;20.70;99.90;;;;;;4919193;29;20931;-77
2021/06/05 10:28:45;;;;;;;39.77;29.73;;;21.10;99.90;;;;;;4919130;29;20424;-77
2021/06/05 10:31:17;;;;;;;39.73;29.53;;;21.10;99.90;;;;;;4919167;29;20956;-77
2021/06/05 10:34:09;;;;;;;38.50;28.90;;;21.10;99.90;;;;;;4918577;29;20413;-77
2021/06/05 10:36:44;;;;;;;41.23;29.53;;;20.80;99.90;;;;;;4910788;29;20525;-77
2021/06/05 10:39:16;;;;;;;41.17;28.53;;;20.90;99.90;;;;;;4918746;29;20782;-77
2021/06/05 10:41:53;;;;;;;46.07;32.60;;;20.80;99.90;;;;;;4918814;29;20388;-78
2021/06/05 10:44:19;;;;;;;46.47;33.13;;;20.70;99.90;;;;;;4918166;29;20478;-77
2021/06/05 10:46:56;;;;;;;43.63;31.80;;;20.70;99.90;;;;;;4918325;29;20486;-78
2021/06/05 10:49:32;;;;;;;48.43;34.70;;;20.90;99.90;;;;;;4918706;29;20257;-78
2021/06/05 10:52:17;;;;;;;53.83;34.73;;;20.80;99.90;;;;;;4915926;29;21099;-81
2021/06/05 10:54:52;;;;;;;54.33;35.77;;;20.80;99.90;;;;;;4912452;29;20494;-79
2021/06/05 10:57:32;;;;;;;57.37;36.97;;;20.80;99.90;;;;;;4917055;29;20433;-78
2021/06/05 11:00:00;;;;;;;56.57;37.47;;;20.50;99.90;;;;;;4916331;29;20448;-77
2021/06/05 11:02:47;;;;;;;56.40;36.97;;;20.60;99.90;;;;;;4916655;29;20488;-78
2021/06/05 11:05:34;;;;;;;67.83;38.63;;;20.70;99.90;;;;;;4916124;29;20501;-79
2021/06/05 11:08:13;;;;;;;51.13;36.77;;;20.70;99.90;;;;;;4903930;29;20430;-78
2021/06/05 11:11:00;;;;;;;50.00;34.37;;;21.00;99.90;;;;;;4916595;29;20785;-79
2021/06/05 11:13:31;;;;;;;57.87;37.93;;;21.10;99.90;;;;;;4915838;29;20940;-77
2021/06/05 11:15:59;;;;;;;48.50;35.33;;;21.20;99.90;;;;;;4916245;29;20471;-77
2021/06/05 11:18:39;;;;;;;54.07;38.63;;;21.20;99.90;;;;;;4916584;29;20478;-77
2021/06/05 11:21:22;;;;;;;56.60;38.10;;;21.20;99.90;;;;;;4915511;29;20504;-77
2021/06/05 11:23:57;;;;;;;57.03;40.90;;;21.00;99.90;;;;;;4930322;29;20474;-79
2021/06/05 11:26:38;;;;;;;52.43;38.83;;;21.30;99.90;;;;;;4916455;29;20958;-76
2021/06/05 11:29:23;;;;;;;53.37;38.23;;;21.30;99.90;;;;;;4915373;29;20434;-78
2021/06/05 11:31:57;;;;;;;45.63;33.40;;;21.20;99.90;;;;;;4916345;29;20429;-78
2021/06/05 11:34:29;;;;;;;52.80;37.57;;;21.50;99.90;;;;;;4915664;29;20452;-78
2021/06/05 11:37:02;;;;;;;46.40;33.40;;;21.70;99.90;;;;;;4915597;29;20401;-78
2021/06/05 11:39:30;;;;;;;50.60;37.47;;;21.60;99.90;;;;;;4916243;29;20434;-78
2021/06/05 11:41:58;;;;;;;54.30;37.20;;;21.50;99.90;;;;;;4915867;29;20463;-78
2021/06/05 11:44:37;;;;;;;53.90;35.70;;;21.40;99.90;;;;;;4915279;29;20543;-77
2021/06/05 11:47:15;;;;;;;56.93;39.63;;;21.10;99.90;;;;;;4915651;29;20493;-77
2021/06/05 11:49:41;;;;;;;56.17;38.83;;;21.00;99.90;;;;;;4916211;29;20856;-79
2021/06/05 11:52:26;;;;;;;53.60;38.57;;;20.90;99.90;;;;;;4914959;29;20507;-78
2021/06/05 11:54:53;;;;;;;61.57;40.03;;;21.10;99.90;;;;;;4910370;29;20210;-79
2021/06/05 11:57:24;;;;;;;50.53;34.90;;;20.80;99.90;;;;;;4915399;29;20404;-79
2021/06/05 11:59:50;;;;;;;54.30;37.03;;;20.60;99.90;;;;;;4915868;29;20459;-77
2021/06/05 12:02:35;;;;;;;55.10;39.17;;;20.30;99.90;;;;;;4915535;29;20788;-78
2021/06/05 12:05:06;;;;;;;52.13;36.67;;;20.40;99.90;;;;;;4914374;29;20443;-79
2021/06/05 12:07:39;;;;;;;53.10;36.13;;;20.20;99.90;;;;;;4916021;29;20448;-78
2021/06/05 12:10:13;;;;;;;52.33;38.50;;;20.20;99.90;;;;;;4915153;29;20428;-78
2021/06/05 12:12:46;;;;;;;51.13;35.17;;;20.20;99.90;;;;;;4915273;29;20479;-79
2021/06/05 12:15:21;;;;;;;49.77;35.17;;;19.90;99.90;;;;;;4929727;29;20429;-80
2021/06/05 12:17:56;;;;;;;55.03;37.93;;;20.00;99.90;;;;;;4915751;29;20817;-78
2021/06/05 12:20:27;;;;;;;49.33;36.00;;;19.90;99.90;;;;;;4914928;29;20401;-79
2021/06/05 12:22:57;;;;;;;55.80;37.60;;;19.90;99.90;;;;;;4915649;29;20890;-78
2021/06/05 12:25:28;;;;;;;51.20;36.60;;;19.60;99.90;;;;;;4915167;29;20456;-77
2021/06/05 12:28:14;;;;;;;49.53;34.33;;;19.50;99.90;;;;;;4915215;29;20454;-77
2021/06/05 12:30:43;;;;;;;55.30;37.30;;;19.40;99.90;;;;;;4915977;29;20392;-77
2021/06/05 12:33:12;;;;;;;59.03;39.87;;;19.20;99.90;;;;;;4915076;29;20442;-78
2021/06/05 12:35:40;;;;;;;63.87;40.80;;;19.10;99.90;;;;;;4915257;29;20478;-78
2021/06/05 12:38:09;;;;;;;74.13;47.07;;;19.10;99.90;;;;;;4915312;29;20741;-78
2021/06/05 12:40:54;;;;;;;74.70;46.07;;;19.20;99.90;;;;;;4915621;29;20421;-77